sensor_id;sensor_type;location;lat;lon;timestamp;P1;durP1;ratioP1;P2;durP2;ratioP2
41643;SDS011;44236;48.098;11.582;2023-04-28T00:01:41;3.70;;;1.90;;
41643;SDS011;44236;48.098;11.582;2023-04-28T00:04:06;4.63;;;2.20;;
41643;SDS011;44236;48.098;11.582;2023-04-28T00:06:32;4.88;;;1.85;;
41643;SDS011;44236;48.098;11.582;2023-04-28T00:08:58;4.85;;;2.03;;
41643;SDS011;44236;48.098;11.582;2023-04-28T00:11:24;3.85;;;1.80;;
41643;SDS011;44236;48.098;11.582;2023-04-28T00:13:49;3.60;;;1.90;;
41643;SDS011;44236;48.098;11.582;2023-04-28T00:16:15;3.45;;;1.75;;
41643;SDS011;44236;48.098;11.582;2023-04-28T00:18:41;6.10;;;2.40;;
41643;SDS011;44236;48.098;11.582;2023-04-28T00:21:07;3.58;;;1.80;;
41643;SDS011;44236;48.098;11.582;2023-04-28T00:23:32;3.88;;;2.03;;
41643;SDS011;44236;48.098;11.582;2023-04-28T00:25:58;3.65;;;1.77;;
41643;SDS011;44236;48.098;11.582;2023-04-28T00:28:23;7.90;;;2.20;;
41643;SDS011;44236;48.098;11.582;2023-04-28T00:30:49;3.97;;;1.50;;
41643;SDS011;44236;48.098;11.582;2023-04-28T00:33:15;4.75;;;2.10;;
41643;SDS011;44236;48.098;11.582;2023-04-28T00:35:41;4.72;;;2.50;;
41643;SDS011;44236;48.098;11.582;2023-04-28T00:38:06;2.95;;;1.65;;
41643;SDS011;44236;48.098;11.582;2023-04-28T00:40:35;2.83;;;1.60;;
41643;SDS011;44236;48.098;11.582;2023-04-28T00:43:01;3.53;;;1.80;;
41643;SDS011;44236;48.098;11.582;2023-04-28T00:45:28;5.53;;;1.98;;
41643;SDS011;44236;48.098;11.582;2023-04-28T00:47:54;3.45;;;1.65;;
41643;SDS011;44236;48.098;11.582;2023-04-28T00:50:21;4.50;;;2.08;;
41643;SDS011;44236;48.098;11.582;2023-04-28T00:52:47;5.38;;;1.92;;
41643;SDS011;44236;48.098;11.582;2023-04-28T00:55:14;3.95;;;2.00;;
41643;SDS011;44236;48.098;11.582;2023-04-28T00:57:41;2.88;;;1.90;;
41643;SDS011;44236;48.098;11.582;2023-04-28T01:00:07;3.63;;;2.05;;
41643;SDS011;44236;48.098;11.582;2023-04-28T01:02:34;3.75;;;1.60;;
41643;SDS011;44236;48.098;11.582;2023-04-28T01:05:00;5.40;;;1.80;;
41643;SDS011;44236;48.098;11.582;2023-04-28T01:07:27;6.95;;;1.63;;
41643;SDS011;44236;48.098;11.582;2023-04-28T01:09:53;3.70;;;1.98;;
41643;SDS011;44236;48.098;11.582;2023-04-28T01:12:19;4.03;;;1.70;;
41643;SDS011;44236;48.098;11.582;2023-04-28T01:14:45;3.47;;;1.92;;
41643;SDS011;44236;48.098;11.582;2023-04-28T01:17:11;3.45;;;1.52;;
41643;SDS011;44236;48.098;11.582;2023-04-28T01:19:37;6.00;;;2.08;;
41643;SDS011;44236;48.098;11.582;2023-04-28T01:22:02;2.95;;;1.50;;
41643;SDS011;44236;48.098;11.582;2023-04-28T01:24:28;5.32;;;1.80;;
41643;SDS011;44236;48.098;11.582;2023-04-28T01:26:54;3.55;;;2.15;;
41643;SDS011;44236;48.098;11.582;2023-04-28T01:29:20;5.35;;;1.40;;
41643;SDS011;44236;48.098;11.582;2023-04-28T01:31:46;3.80;;;1.73;;
41643;SDS011;44236;48.098;11.582;2023-04-28T01:34:12;7.30;;;1.80;;
41643;SDS011;44236;48.098;11.582;2023-04-28T01:36:37;3.35;;;1.83;;
41643;SDS011;44236;48.098;11.582;2023-04-28T01:39:03;3.80;;;1.67;;
41643;SDS011;44236;48.098;11.582;2023-04-28T01:41:29;3.88;;;1.75;;
41643;SDS011;44236;48.098;11.582;2023-04-28T01:43:55;6.28;;;1.95;;
41643;SDS011;44236;48.098;11.582;2023-04-28T01:46:21;4.03;;;1.98;;
41643;SDS011;44236;48.098;11.582;2023-04-28T01:48:46;3.65;;;1.75;;
41643;SDS011;44236;48.098;11.582;2023-04-28T01:51:12;3.38;;;1.88;;
41643;SDS011;44236;48.098;11.582;2023-04-28T01:53:38;3.75;;;1.88;;
41643;SDS011;44236;48.098;11.582;2023-04-28T01:56:03;4.32;;;2.05;;
41643;SDS011;44236;48.098;11.582;2023-04-28T01:58:29;3.85;;;1.50;;
41643;SDS011;44236;48.098;11.582;2023-04-28T02:00:55;3.45;;;1.88;;
41643;SDS011;44236;48.098;11.582;2023-04-28T02:03:20;2.35;;;1.42;;
41643;SDS011;44236;48.098;11.582;2023-04-28T02:05:46;3.97;;;1.88;;
41643;SDS011;44236;48.098;11.582;2023-04-28T02:08:12;3.10;;;1.73;;
41643;SDS011;44236;48.098;11.582;2023-04-28T02:10:37;4.30;;;1.60;;
41643;SDS011;44236;48.098;11.582;2023-04-28T02:13:03;5.32;;;1.90;;
41643;SDS011;44236;48.098;11.582;2023-04-28T02:15:28;2.78;;;1.60;;
41643;SDS011;44236;48.098;11.582;2023-04-28T02:17:54;2.58;;;1.52;;
41643;SDS011;44236;48.098;11.582;2023-04-28T02:20:20;2.80;;;1.55;;
41643;SDS011;44236;48.098;11.582;2023-04-28T02:22:45;3.95;;;1.40;;
41643;SDS011;44236;48.098;11.582;2023-04-28T02:25:11;2.95;;;1.55;;
41643;SDS011;44236;48.098;11.582;2023-04-28T02:27:37;3.65;;;1.58;;
41643;SDS011;44236;48.098;11.582;2023-04-28T02:30:03;2.53;;;1.23;;
41643;SDS011;44236;48.098;11.582;2023-04-28T02:32:29;2.63;;;1.48;;
41643;SDS011;44236;48.098;11.582;2023-04-28T02:34:55;2.58;;;1.38;;
41643;SDS011;44236;48.098;11.582;2023-04-28T02:37:21;2.92;;;1.40;;
41643;SDS011;44236;48.098;11.582;2023-04-28T02:39:46;2.70;;;1.63;;
41643;SDS011;44236;48.098;11.582;2023-04-28T02:42:12;3.15;;;1.67;;
41643;SDS011;44236;48.098;11.582;2023-04-28T02:44:38;4.63;;;1.60;;
41643;SDS011;44236;48.098;11.582;2023-04-28T02:47:03;2.60;;;1.58;;
41643;SDS011;44236;48.098;11.582;2023-04-28T02:49:29;3.10;;;1.77;;
41643;SDS011;44236;48.098;11.582;2023-04-28T02:51:55;3.17;;;1.60;;
41643;SDS011;44236;48.098;11.582;2023-04-28T02:54:21;3.75;;;1.60;;
41643;SDS011;44236;48.098;11.582;2023-04-28T02:56:55;4.75;;;1.52;;
41643;SDS011;44236;48.098;11.582;2023-04-28T02:59:21;2.95;;;1.50;;
41643;SDS011;44236;48.098;11.582;2023-04-28T03:01:47;4.07;;;1.40;;
41643;SDS011;44236;48.098;11.582;2023-04-28T03:04:14;3.70;;;1.48;;
41643;SDS011;44236;48.098;11.582;2023-04-28T03:06:40;3.47;;;1.50;;
41643;SDS011;44236;48.098;11.582;2023-04-28T03:09:06;3.22;;;1.60;;
41643;SDS011;44236;48.098;11.582;2023-04-28T03:11:32;2.03;;;1.10;;
41643;SDS011;44236;48.098;11.582;2023-04-28T03:13:57;2.45;;;1.40;;
41643;SDS011;44236;48.098;11.582;2023-04-28T03:16:23;3.55;;;1.80;;
41643;SDS011;44236;48.098;11.582;2023-04-28T03:18:48;3.22;;;1.75;;
41643;SDS011;44236;48.098;11.582;2023-04-28T03:21:14;2.60;;;1.63;;
41643;SDS011;44236;48.098;11.582;2023-04-28T03:23:40;2.20;;;1.33;;
41643;SDS011;44236;48.098;11.582;2023-04-28T03:26:05;3.20;;;1.45;;
41643;SDS011;44236;48.098;11.582;2023-04-28T03:28:31;3.05;;;1.92;;
41643;SDS011;44236;48.098;11.582;2023-04-28T03:30:57;2.40;;;1.35;;
41643;SDS011;44236;48.098;11.582;2023-04-28T03:33:23;2.42;;;1.50;;
41643;SDS011;44236;48.098;11.582;2023-04-28T03:35:48;2.75;;;1.60;;
41643;SDS011;44236;48.098;11.582;2023-04-28T03:38:14;3.05;;;1.40;;
41643;SDS011;44236;48.098;11.582;2023-04-28T03:40:40;2.58;;;1.42;;
41643;SDS011;44236;48.098;11.582;2023-04-28T03:43:05;3.20;;;1.83;;
41643;SDS011;44236;48.098;11.582;2023-04-28T03:45:31;2.95;;;1.30;;
41643;SDS011;44236;48.098;11.582;2023-04-28T03:47:57;2.92;;;1.38;;
41643;SDS011;44236;48.098;11.582;2023-04-28T03:50:23;2.80;;;1.40;;
41643;SDS011;44236;48.098;11.582;2023-04-28T03:52:48;2.00;;;1.00;;
41643;SDS011;44236;48.098;11.582;2023-04-28T03:55:14;3.40;;;1.33;;
41643;SDS011;44236;48.098;11.582;2023-04-28T03:57:40;3.53;;;1.13;;
41643;SDS011;44236;48.098;11.582;2023-04-28T04:00:06;4.68;;;1.83;;
41643;SDS011;44236;48.098;11.582;2023-04-28T04:02:32;3.22;;;1.40;;
41643;SDS011;44236;48.098;11.582;2023-04-28T04:04:58;1.98;;;1.15;;
41643;SDS011;44236;48.098;11.582;2023-04-28T04:07:24;2.22;;;1.40;;
41643;SDS011;44236;48.098;11.582;2023-04-28T04:09:49;2.55;;;1.25;;
41643;SDS011;44236;48.098;11.582;2023-04-28T04:12:15;5.47;;;1.17;;
41643;SDS011;44236;48.098;11.582;2023-04-28T04:14:41;3.97;;;1.40;;
41643;SDS011;44236;48.098;11.582;2023-04-28T04:17:07;5.82;;;1.40;;
41643;SDS011;44236;48.098;11.582;2023-04-28T04:19:33;6.82;;;1.30;;
41643;SDS011;44236;48.098;11.582;2023-04-28T04:21:58;3.00;;;1.35;;
41643;SDS011;44236;48.098;11.582;2023-04-28T04:24:24;2.15;;;1.10;;
41643;SDS011;44236;48.098;11.582;2023-04-28T04:26:50;2.75;;;1.35;;
41643;SDS011;44236;48.098;11.582;2023-04-28T04:29:15;3.35;;;1.55;;
41643;SDS011;44236;48.098;11.582;2023-04-28T04:31:41;2.17;;;1.20;;
41643;SDS011;44236;48.098;11.582;2023-04-28T04:34:09;5.65;;;1.38;;
41643;SDS011;44236;48.098;11.582;2023-04-28T04:36:35;7.10;;;1.38;;
41643;SDS011;44236;48.098;11.582;2023-04-28T04:39:01;3.13;;;1.40;;
41643;SDS011;44236;48.098;11.582;2023-04-28T04:41:26;4.00;;;2.35;;
41643;SDS011;44236;48.098;11.582;2023-04-28T04:43:52;4.68;;;1.20;;
41643;SDS011;44236;48.098;11.582;2023-04-28T04:46:18;4.22;;;1.40;;
41643;SDS011;44236;48.098;11.582;2023-04-28T04:48:43;6.40;;;1.60;;
41643;SDS011;44236;48.098;11.582;2023-04-28T04:51:09;4.35;;;1.50;;
41643;SDS011;44236;48.098;11.582;2023-04-28T04:53:35;4.90;;;1.42;;
41643;SDS011;44236;48.098;11.582;2023-04-28T04:56:01;2.53;;;1.38;;
41643;SDS011;44236;48.098;11.582;2023-04-28T04:58:27;4.15;;;1.20;;
41643;SDS011;44236;48.098;11.582;2023-04-28T05:00:54;2.88;;;1.20;;
41643;SDS011;44236;48.098;11.582;2023-04-28T05:03:19;4.13;;;1.58;;
41643;SDS011;44236;48.098;11.582;2023-04-28T05:05:45;5.88;;;1.23;;
41643;SDS011;44236;48.098;11.582;2023-04-28T05:08:12;5.20;;;1.75;;
41643;SDS011;44236;48.098;11.582;2023-04-28T05:10:38;10.77;;;1.17;;
41643;SDS011;44236;48.098;11.582;2023-04-28T05:13:04;2.80;;;1.02;;
41643;SDS011;44236;48.098;11.582;2023-04-28T05:15:30;1.80;;;0.85;;
41643;SDS011;44236;48.098;11.582;2023-04-28T05:17:56;5.90;;;1.58;;
41643;SDS011;44236;48.098;11.582;2023-04-28T05:20:22;5.53;;;1.30;;
41643;SDS011;44236;48.098;11.582;2023-04-28T05:22:47;9.52;;;1.30;;
41643;SDS011;44236;48.098;11.582;2023-04-28T05:25:13;1.58;;;0.90;;
41643;SDS011;44236;48.098;11.582;2023-04-28T05:27:39;3.53;;;0.90;;
41643;SDS011;44236;48.098;11.582;2023-04-28T05:30:08;4.22;;;0.85;;
41643;SDS011;44236;48.098;11.582;2023-04-28T05:32:34;1.73;;;1.00;;
41643;SDS011;44236;48.098;11.582;2023-04-28T05:35:02;1.73;;;0.90;;
41643;SDS011;44236;48.098;11.582;2023-04-28T05:37:28;1.65;;;0.77;;
41643;SDS011;44236;48.098;11.582;2023-04-28T05:39:54;4.97;;;0.95;;
41643;SDS011;44236;48.098;11.582;2023-04-28T05:42:20;6.95;;;1.20;;
41643;SDS011;44236;48.098;11.582;2023-04-28T05:44:45;2.80;;;0.90;;
41643;SDS011;44236;48.098;11.582;2023-04-28T05:47:11;5.78;;;1.17;;
41643;SDS011;44236;48.098;11.582;2023-04-28T05:49:36;2.60;;;0.93;;
41643;SDS011;44236;48.098;11.582;2023-04-28T05:52:02;1.42;;;0.80;;
41643;SDS011;44236;48.098;11.582;2023-04-28T05:54:28;6.13;;;0.90;;
41643;SDS011;44236;48.098;11.582;2023-04-28T05:56:54;3.80;;;0.95;;
41643;SDS011;44236;48.098;11.582;2023-04-28T05:59:20;1.90;;;0.80;;
41643;SDS011;44236;48.098;11.582;2023-04-28T06:01:45;2.30;;;1.10;;
41643;SDS011;44236;48.098;11.582;2023-04-28T06:04:11;4.30;;;0.80;;
41643;SDS011;44236;48.098;11.582;2023-04-28T06:06:37;2.00;;;1.10;;
41643;SDS011;44236;48.098;11.582;2023-04-28T06:09:02;3.58;;;1.20;;
41643;SDS011;44236;48.098;11.582;2023-04-28T06:11:28;1.45;;;0.90;;
41643;SDS011;44236;48.098;11.582;2023-04-28T06:13:54;8.27;;;1.35;;
41643;SDS011;44236;48.098;11.582;2023-04-28T06:16:19;4.18;;;1.35;;
41643;SDS011;44236;48.098;11.582;2023-04-28T06:18:47;6.15;;;1.00;;
41643;SDS011;44236;48.098;11.582;2023-04-28T06:21:13;2.55;;;1.00;;
41643;SDS011;44236;48.098;11.582;2023-04-28T06:23:38;4.40;;;1.85;;
41643;SDS011;44236;48.098;11.582;2023-04-28T06:26:06;9.45;;;2.28;;
41643;SDS011;44236;48.098;11.582;2023-04-28T06:28:32;3.97;;;1.65;;
41643;SDS011;44236;48.098;11.582;2023-04-28T06:30:57;3.60;;;1.67;;
41643;SDS011;44236;48.098;11.582;2023-04-28T06:33:23;4.65;;;1.40;;
41643;SDS011;44236;48.098;11.582;2023-04-28T06:35:49;3.10;;;1.23;;
41643;SDS011;44236;48.098;11.582;2023-04-28T06:38:15;6.22;;;1.27;;
41643;SDS011;44236;48.098;11.582;2023-04-28T06:40:41;9.50;;;1.45;;
41643;SDS011;44236;48.098;11.582;2023-04-28T06:43:06;13.32;;;1.40;;
41643;SDS011;44236;48.098;11.582;2023-04-28T06:45:32;14.27;;;2.05;;
41643;SDS011;44236;48.098;11.582;2023-04-28T06:47:58;3.75;;;1.35;;
41643;SDS011;44236;48.098;11.582;2023-04-28T06:50:23;15.13;;;4.40;;
41643;SDS011;44236;48.098;11.582;2023-04-28T06:52:49;14.27;;;3.67;;
41643;SDS011;44236;48.098;11.582;2023-04-28T06:55:15;10.57;;;3.08;;
41643;SDS011;44236;48.098;11.582;2023-04-28T06:57:41;12.15;;;2.45;;
41643;SDS011;44236;48.098;11.582;2023-04-28T07:00:08;11.23;;;3.10;;
41643;SDS011;44236;48.098;11.582;2023-04-28T07:02:34;12.20;;;3.05;;
41643;SDS011;44236;48.098;11.582;2023-04-28T07:05:01;14.68;;;3.60;;
41643;SDS011;44236;48.098;11.582;2023-04-28T07:07:27;12.70;;;2.97;;
41643;SDS011;44236;48.098;11.582;2023-04-28T07:09:53;11.52;;;2.60;;
41643;SDS011;44236;48.098;11.582;2023-04-28T07:12:19;10.40;;;2.22;;
41643;SDS011;44236;48.098;11.582;2023-04-28T07:14:45;10.18;;;2.72;;
41643;SDS011;44236;48.098;11.582;2023-04-28T07:17:11;21.63;;;4.07;;
41643;SDS011;44236;48.098;11.582;2023-04-28T07:19:37;17.23;;;3.97;;
41643;SDS011;44236;48.098;11.582;2023-04-28T07:22:02;7.93;;;2.83;;
41643;SDS011;44236;48.098;11.582;2023-04-28T07:24:28;12.00;;;3.13;;
41643;SDS011;44236;48.098;11.582;2023-04-28T07:26:54;7.18;;;2.40;;
41643;SDS011;44236;48.098;11.582;2023-04-28T07:29:21;16.90;;;3.80;;
41643;SDS011;44236;48.098;11.582;2023-04-28T07:31:46;12.55;;;2.92;;
41643;SDS011;44236;48.098;11.582;2023-04-28T07:34:12;23.65;;;2.13;;
41643;SDS011;44236;48.098;11.582;2023-04-28T07:36:37;12.73;;;2.22;;
41643;SDS011;44236;48.098;11.582;2023-04-28T07:39:03;15.65;;;2.03;;
41643;SDS011;44236;48.098;11.582;2023-04-28T07:41:29;5.45;;;1.83;;
41643;SDS011;44236;48.098;11.582;2023-04-28T07:43:54;9.30;;;2.60;;
41643;SDS011;44236;48.098;11.582;2023-04-28T07:46:20;5.78;;;1.80;;
41643;SDS011;44236;48.098;11.582;2023-04-28T07:48:46;13.00;;;3.20;;
41643;SDS011;44236;48.098;11.582;2023-04-28T07:51:12;8.07;;;1.55;;
41643;SDS011;44236;48.098;11.582;2023-04-28T07:53:38;3.72;;;1.42;;
41643;SDS011;44236;48.098;11.582;2023-04-28T07:56:03;2.97;;;1.40;;
41643;SDS011;44236;48.098;11.582;2023-04-28T07:58:29;3.85;;;0.90;;
41643;SDS011;44236;48.098;11.582;2023-04-28T08:00:55;3.78;;;1.00;;
41643;SDS011;44236;48.098;11.582;2023-04-28T08:03:21;2.28;;;1.02;;
41643;SDS011;44236;48.098;11.582;2023-04-28T08:05:46;3.10;;;1.10;;
41643;SDS011;44236;48.098;11.582;2023-04-28T08:08:12;2.85;;;0.95;;
41643;SDS011;44236;48.098;11.582;2023-04-28T08:10:37;6.80;;;1.15;;
41643;SDS011;44236;48.098;11.582;2023-04-28T08:13:06;5.68;;;1.00;;
41643;SDS011;44236;48.098;11.582;2023-04-28T08:15:32;4.10;;;0.93;;
41643;SDS011;44236;48.098;11.582;2023-04-28T08:17:57;2.10;;;0.80;;
41643;SDS011;44236;48.098;11.582;2023-04-28T08:20:23;8.63;;;0.85;;
41643;SDS011;44236;48.098;11.582;2023-04-28T08:22:49;3.15;;;0.80;;
41643;SDS011;44236;48.098;11.582;2023-04-28T08:25:15;2.72;;;0.70;;
41643;SDS011;44236;48.098;11.582;2023-04-28T08:27:42;2.53;;;0.88;;
41643;SDS011;44236;48.098;11.582;2023-04-28T08:30:08;2.80;;;0.70;;
41643;SDS011;44236;48.098;11.582;2023-04-28T08:32:34;3.13;;;0.70;;
41643;SDS011;44236;48.098;11.582;2023-04-28T08:35:00;1.15;;;0.70;;
41643;SDS011;44236;48.098;11.582;2023-04-28T08:37:26;2.03;;;1.10;;
41643;SDS011;44236;48.098;11.582;2023-04-28T08:39:52;2.28;;;0.88;;
41643;SDS011;44236;48.098;11.582;2023-04-28T08:42:28;1.05;;;0.60;;
41643;SDS011;44236;48.098;11.582;2023-04-28T08:44:55;1.75;;;0.70;;
41643;SDS011;44236;48.098;11.582;2023-04-28T08:47:24;1.52;;;0.75;;
41643;SDS011;44236;48.098;11.582;2023-04-28T08:50:06;1.98;;;0.80;;
41643;SDS011;44236;48.098;11.582;2023-04-28T08:52:32;2.35;;;0.90;;
41643;SDS011;44236;48.098;11.582;2023-04-28T08:54:59;3.15;;;1.00;;
41643;SDS011;44236;48.098;11.582;2023-04-28T08:57:28;4.07;;;1.00;;
41643;SDS011;44236;48.098;11.582;2023-04-28T09:00:05;2.60;;;0.95;;
41643;SDS011;44236;48.098;11.582;2023-04-28T09:02:30;1.17;;;0.60;;
41643;SDS011;44236;48.098;11.582;2023-04-28T09:04:57;3.97;;;1.00;;
41643;SDS011;44236;48.098;11.582;2023-04-28T09:07:22;3.78;;;0.70;;
41643;SDS011;44236;48.098;11.582;2023-04-28T09:09:48;3.30;;;1.02;;
41643;SDS011;44236;48.098;11.582;2023-04-28T09:12:14;5.43;;;1.13;;
41643;SDS011;44236;48.098;11.582;2023-04-28T09:14:42;1.95;;;0.70;;
41643;SDS011;44236;48.098;11.582;2023-04-28T09:17:11;3.50;;;0.70;;
41643;SDS011;44236;48.098;11.582;2023-04-28T09:19:37;1.15;;;0.80;;
41643;SDS011;44236;48.098;11.582;2023-04-28T09:22:04;1.52;;;0.90;;
41643;SDS011;44236;48.098;11.582;2023-04-28T09:24:31;4.07;;;0.75;;
41643;SDS011;44236;48.098;11.582;2023-04-28T09:26:59;2.88;;;0.98;;
41643;SDS011;44236;48.098;11.582;2023-04-28T09:29:26;1.70;;;0.77;;
41643;SDS011;44236;48.098;11.582;2023-04-28T09:31:52;1.88;;;0.50;;
41643;SDS011;44236;48.098;11.582;2023-04-28T09:34:19;1.63;;;0.85;;
41643;SDS011;44236;48.098;11.582;2023-04-28T09:36:45;4.97;;;0.95;;
41643;SDS011;44236;48.098;11.582;2023-04-28T09:39:11;2.40;;;0.93;;
41643;SDS011;44236;48.098;11.582;2023-04-28T09:44:09;4.85;;;0.95;;
41643;SDS011;44236;48.098;11.582;2023-04-28T09:46:39;4.45;;;1.00;;
41643;SDS011;44236;48.098;11.582;2023-04-28T09:49:06;2.20;;;0.63;;
41643;SDS011;44236;48.098;11.582;2023-04-28T09:51:32;2.38;;;1.02;;
41643;SDS011;44236;48.098;11.582;2023-04-28T09:53:59;0.85;;;0.60;;
41643;SDS011;44236;48.098;11.582;2023-04-28T09:56:29;1.73;;;0.80;;
41643;SDS011;44236;48.098;11.582;2023-04-28T09:58:57;2.97;;;0.60;;
41643;SDS011;44236;48.098;11.582;2023-04-28T10:01:27;1.17;;;0.63;;
41643;SDS011;44236;48.098;11.582;2023-04-28T10:03:56;2.00;;;0.75;;
41643;SDS011;44236;48.098;11.582;2023-04-28T10:06:23;1.35;;;0.70;;
41643;SDS011;44236;48.098;11.582;2023-04-28T10:08:49;1.70;;;0.82;;
41643;SDS011;44236;48.098;11.582;2023-04-28T10:11:16;2.25;;;0.57;;
41643;SDS011;44236;48.098;11.582;2023-04-28T10:13:42;1.30;;;0.60;;
41643;SDS011;44236;48.098;11.582;2023-04-28T10:16:09;0.85;;;0.50;;
41643;SDS011;44236;48.098;11.582;2023-04-28T10:18:35;1.27;;;0.50;;
41643;SDS011;44236;48.098;11.582;2023-04-28T10:21:02;1.27;;;0.60;;
41643;SDS011;44236;48.098;11.582;2023-04-28T10:26:13;1.83;;;0.60;;
41643;SDS011;44236;48.098;11.582;2023-04-28T10:28:47;2.10;;;1.00;;
41643;SDS011;44236;48.098;11.582;2023-04-28T10:31:14;1.10;;;0.52;;
41643;SDS011;44236;48.098;11.582;2023-04-28T10:33:42;2.75;;;0.70;;
41643;SDS011;44236;48.098;11.582;2023-04-28T10:36:08;2.05;;;0.77;;
41643;SDS011;44236;48.098;11.582;2023-04-28T10:38:34;1.27;;;0.47;;
41643;SDS011;44236;48.098;11.582;2023-04-28T10:41:31;1.98;;;0.60;;
41643;SDS011;44236;48.098;11.582;2023-04-28T10:43:57;1.60;;;0.70;;
41643;SDS011;44236;48.098;11.582;2023-04-28T10:46:23;1.17;;;0.65;;
41643;SDS011;44236;48.098;11.582;2023-04-28T10:56:09;1.90;;;0.90;;
41643;SDS011;44236;48.098;11.582;2023-04-28T10:58:42;1.77;;;0.70;;
41643;SDS011;44236;48.098;11.582;2023-04-28T11:09:01;0.88;;;0.50;;
41643;SDS011;44236;48.098;11.582;2023-04-28T11:19:35;2.55;;;0.40;;
41643;SDS011;44236;48.098;11.582;2023-04-28T11:24:58;1.33;;;0.43;;
41643;SDS011;44236;48.098;11.582;2023-04-28T11:27:29;1.65;;;0.70;;
41643;SDS011;44236;48.098;11.582;2023-04-28T11:29:56;2.72;;;0.50;;
41643;SDS011;44236;48.098;11.582;2023-04-28T11:32:25;3.08;;;0.77;;
41643;SDS011;44236;48.098;11.582;2023-04-28T11:34:52;3.35;;;0.60;;
41643;SDS011;44236;48.098;11.582;2023-04-28T11:37:18;0.68;;;0.40;;
41643;SDS011;44236;48.098;11.582;2023-04-28T11:39:45;1.52;;;0.60;;
41643;SDS011;44236;48.098;11.582;2023-04-28T11:42:11;1.50;;;0.50;;
41643;SDS011;44236;48.098;11.582;2023-04-28T11:44:37;1.23;;;0.50;;
41643;SDS011;44236;48.098;11.582;2023-04-28T11:47:03;5.50;;;0.70;;
41643;SDS011;44236;48.098;11.582;2023-04-28T11:49:51;1.10;;;0.50;;
41643;SDS011;44236;48.098;11.582;2023-04-28T11:52:16;2.08;;;0.90;;
41643;SDS011;44236;48.098;11.582;2023-04-28T11:54:42;3.88;;;0.60;;
41643;SDS011;44236;48.098;11.582;2023-04-28T11:57:15;5.53;;;0.60;;
41643;SDS011;44236;48.098;11.582;2023-04-28T11:59:42;4.13;;;0.85;;
41643;SDS011;44236;48.098;11.582;2023-04-28T12:02:08;3.88;;;0.68;;
41643;SDS011;44236;48.098;11.582;2023-04-28T12:04:40;0.73;;;0.40;;
41643;SDS011;44236;48.098;11.582;2023-04-28T12:07:11;4.13;;;0.40;;
41643;SDS011;44236;48.098;11.582;2023-04-28T12:09:41;2.95;;;0.60;;
41643;SDS011;44236;48.098;11.582;2023-04-28T12:17:35;1.55;;;0.40;;
41643;SDS011;44236;48.098;11.582;2023-04-28T12:20:06;1.38;;;0.50;;
41643;SDS011;44236;48.098;11.582;2023-04-28T12:22:49;0.63;;;0.38;;
41643;SDS011;44236;48.098;11.582;2023-04-28T12:25:18;1.98;;;0.35;;
41643;SDS011;44236;48.098;11.582;2023-04-28T12:30:30;1.92;;;0.60;;
41643;SDS011;44236;48.098;11.582;2023-04-28T12:33:06;0.98;;;0.52;;
41643;SDS011;44236;48.098;11.582;2023-04-28T12:35:53;1.13;;;0.40;;
41643;SDS011;44236;48.098;11.582;2023-04-28T12:38:21;1.52;;;0.50;;
41643;SDS011;44236;48.098;11.582;2023-04-28T12:40:47;2.38;;;0.40;;
41643;SDS011;44236;48.098;11.582;2023-04-28T12:43:13;3.20;;;0.85;;
41643;SDS011;44236;48.098;11.582;2023-04-28T12:45:39;4.82;;;0.60;;
41643;SDS011;44236;48.098;11.582;2023-04-28T12:48:05;1.77;;;0.50;;
41643;SDS011;44236;48.098;11.582;2023-04-28T12:50:32;1.45;;;0.40;;
41643;SDS011;44236;48.098;11.582;2023-04-28T12:52:57;2.55;;;0.52;;
41643;SDS011;44236;48.098;11.582;2023-04-28T12:55:23;4.45;;;0.77;;
41643;SDS011;44236;48.098;11.582;2023-04-28T12:57:50;0.93;;;0.70;;
41643;SDS011;44236;48.098;11.582;2023-04-28T13:00:16;5.70;;;0.77;;
41643;SDS011;44236;48.098;11.582;2023-04-28T13:02:45;25.25;;;2.92;;
41643;SDS011;44236;48.098;11.582;2023-04-28T13:05:10;24.30;;;1.35;;
41643;SDS011;44236;48.098;11.582;2023-04-28T13:07:38;3.67;;;0.80;;
41643;SDS011;44236;48.098;11.582;2023-04-28T13:10:04;9.50;;;0.80;;
41643;SDS011;44236;48.098;11.582;2023-04-28T13:12:30;4.13;;;1.15;;
41643;SDS011;44236;48.098;11.582;2023-04-28T13:14:57;3.22;;;0.47;;
41643;SDS011;44236;48.098;11.582;2023-04-28T13:17:23;2.75;;;0.60;;
41643;SDS011;44236;48.098;11.582;2023-04-28T13:19:48;3.65;;;1.15;;
41643;SDS011;44236;48.098;11.582;2023-04-28T13:22:14;1.90;;;0.43;;
41643;SDS011;44236;48.098;11.582;2023-04-28T13:24:40;1.40;;;0.40;;
41643;SDS011;44236;48.098;11.582;2023-04-28T13:27:05;14.25;;;0.75;;
41643;SDS011;44236;48.098;11.582;2023-04-28T13:29:33;4.88;;;0.50;;
41643;SDS011;44236;48.098;11.582;2023-04-28T13:32:00;2.13;;;0.75;;
41643;SDS011;44236;48.098;11.582;2023-04-28T13:34:26;0.95;;;0.43;;
41643;SDS011;44236;48.098;11.582;2023-04-28T13:36:51;2.05;;;0.40;;
41643;SDS011;44236;48.098;11.582;2023-04-28T13:39:19;13.38;;;4.82;;
41643;SDS011;44236;48.098;11.582;2023-04-28T13:41:46;29.45;;;5.97;;
41643;SDS011;44236;48.098;11.582;2023-04-28T13:44:13;12.73;;;4.10;;
41643;SDS011;44236;48.098;11.582;2023-04-28T13:46:39;10.70;;;4.07;;
41643;SDS011;44236;48.098;11.582;2023-04-28T13:49:05;12.07;;;3.80;;
41643;SDS011;44236;48.098;11.582;2023-04-28T13:51:31;10.40;;;4.22;;
41643;SDS011;44236;48.098;11.582;2023-04-28T13:53:57;12.02;;;5.50;;
41643;SDS011;44236;48.098;11.582;2023-04-28T13:56:23;15.32;;;5.28;;
41643;SDS011;44236;48.098;11.582;2023-04-28T13:58:49;23.38;;;5.80;;
41643;SDS011;44236;48.098;11.582;2023-04-28T14:01:14;13.50;;;5.00;;
41643;SDS011;44236;48.098;11.582;2023-04-28T14:03:40;14.43;;;5.40;;
41643;SDS011;44236;48.098;11.582;2023-04-28T14:06:06;15.00;;;4.88;;
41643;SDS011;44236;48.098;11.582;2023-04-28T14:08:32;22.15;;;4.93;;
41643;SDS011;44236;48.098;11.582;2023-04-28T14:10:58;11.57;;;5.05;;
41643;SDS011;44236;48.098;11.582;2023-04-28T14:13:23;10.60;;;4.75;;
41643;SDS011;44236;48.098;11.582;2023-04-28T14:15:52;10.02;;;4.07;;
41643;SDS011;44236;48.098;11.582;2023-04-28T14:18:18;11.85;;;3.88;;
41643;SDS011;44236;48.098;11.582;2023-04-28T14:20:44;8.60;;;3.08;;
41643;SDS011;44236;48.098;11.582;2023-04-28T14:23:09;10.05;;;3.95;;
41643;SDS011;44236;48.098;11.582;2023-04-28T14:25:35;7.03;;;2.83;;
41643;SDS011;44236;48.098;11.582;2023-04-28T14:28:01;10.93;;;3.85;;
41643;SDS011;44236;48.098;11.582;2023-04-28T14:30:27;6.88;;;2.70;;
41643;SDS011;44236;48.098;11.582;2023-04-28T14:32:53;8.45;;;3.13;;
41643;SDS011;44236;48.098;11.582;2023-04-28T14:35:18;6.43;;;2.22;;
41643;SDS011;44236;48.098;11.582;2023-04-28T14:37:45;7.00;;;2.72;;
41643;SDS011;44236;48.098;11.582;2023-04-28T14:40:11;8.73;;;2.78;;
41643;SDS011;44236;48.098;11.582;2023-04-28T14:42:37;5.10;;;2.42;;
41643;SDS011;44236;48.098;11.582;2023-04-28T14:45:04;6.35;;;3.25;;
41643;SDS011;44236;48.098;11.582;2023-04-28T14:47:31;6.10;;;2.42;;
41643;SDS011;44236;48.098;11.582;2023-04-28T14:49:57;5.88;;;3.17;;
41643;SDS011;44236;48.098;11.582;2023-04-28T14:52:23;5.05;;;2.38;;
41643;SDS011;44236;48.098;11.582;2023-04-28T14:54:54;7.22;;;1.65;;
41643;SDS011;44236;48.098;11.582;2023-04-28T14:57:20;2.75;;;1.58;;
41643;SDS011;44236;48.098;11.582;2023-04-28T14:59:46;2.22;;;1.02;;
41643;SDS011;44236;48.098;11.582;2023-04-28T15:02:11;3.03;;;1.10;;
41643;SDS011;44236;48.098;11.582;2023-04-28T15:04:37;1.13;;;0.70;;
41643;SDS011;44236;48.098;11.582;2023-04-28T15:07:03;1.10;;;0.52;;
41643;SDS011;44236;48.098;11.582;2023-04-28T15:09:32;1.52;;;0.40;;